X  Close Metar Aviation Weather Data     EHKD De Kooy Airport
Temperature
41°F Temperature
36°F Dewpoint
81% Humidity



Wind
9 MPH
14 KM/H
4 M/S
8 KTS



320°
NW
Current Conditions

Partly Cloudy Partly Cloudy
Pressure 1010.84 (hPa) - 29.85 (inHg)
Visibility 6 (mile) - 9.7 (km)
Airport
Airport-code EHKD

Location: De Kooy Airport
Distance: 34 (mi)

Metar:
EHKD 240140Z AUTO 32008KT 260V010 9999 FEW015CB SCT032 BKN053 05/02 Q1011 BLU

Time: 24-04-2024 03:40 CEST